createdAt,value
2019-02-14T00:00:53.893Z,100.00
2019-02-14T00:03:26.421Z,100.00
2019-02-14T00:05:58.805Z,100.00
2019-02-14T00:08:31.241Z,100.00
2019-02-14T00:11:03.998Z,100.00
2019-02-14T00:13:36.561Z,100.00
2019-02-14T00:16:09.016Z,100.00
2019-02-14T00:18:41.508Z,100.00
2019-02-14T00:21:13.912Z,100.00
2019-02-14T00:23:46.426Z,100.00
2019-02-14T00:26:18.922Z,100.00
2019-02-14T00:28:51.455Z,100.00
2019-02-14T00:31:24.292Z,100.00
2019-02-14T00:33:56.783Z,100.00
2019-02-14T00:36:29.611Z,100.00
2019-02-14T00:39:43.918Z,100.00
2019-02-14T00:43:02.476Z,100.00
2019-02-14T00:46:23.977Z,100.00
2019-02-14T00:49:23.895Z,100.00
2019-02-14T00:52:28.270Z,100.00
2019-02-14T00:55:31.891Z,100.00
2019-02-14T00:58:36.679Z,100.00
2019-02-14T01:01:51.472Z,100.00
2019-02-14T01:04:57.037Z,100.00
2019-02-14T01:07:57.075Z,100.00
2019-02-14T01:11:07.423Z,100.00
2019-02-14T01:18:10.825Z,100.00
2019-02-14T01:20:43.206Z,100.00
2019-02-14T01:23:15.370Z,100.00
2019-02-14T01:25:47.871Z,100.00
2019-02-14T01:28:20.328Z,100.00
2019-02-14T01:30:53.092Z,100.00
2019-02-14T01:33:25.533Z,100.00
2019-02-14T01:35:57.937Z,100.00
2019-02-14T01:38:30.277Z,100.00
2019-02-14T01:41:02.367Z,100.00
2019-02-14T01:43:34.526Z,100.00
2019-02-14T01:46:06.992Z,100.00
2019-02-14T01:48:39.319Z,100.00
2019-02-14T01:51:12.220Z,100.00
2019-02-14T01:53:46.453Z,100.00
2019-02-14T01:56:21.425Z,100.00
2019-02-14T01:58:53.515Z,100.00
2019-02-14T02:01:26.830Z,100.00
2019-02-14T02:03:58.903Z,100.00
2019-02-14T02:06:31.014Z,100.00
2019-02-14T02:09:04.750Z,100.00
2019-02-14T02:11:36.861Z,100.00
2019-02-14T02:14:08.941Z,100.00
2019-02-14T02:16:41.032Z,100.00
2019-02-14T02:19:13.383Z,100.00
2019-02-14T02:21:45.758Z,100.00
2019-02-14T02:24:18.104Z,100.00
2019-02-14T02:26:50.657Z,100.00
2019-02-14T02:29:23.420Z,100.00
2019-02-14T02:31:55.905Z,100.00
2019-02-14T02:34:28.602Z,100.00
2019-02-14T02:37:00.967Z,100.00
2019-02-14T02:39:33.883Z,100.00
2019-02-14T02:42:04.901Z,100.00
2019-02-14T02:44:36.882Z,100.00
2019-02-14T02:47:09.479Z,100.00
2019-02-14T02:49:41.811Z,100.00
2019-02-14T02:52:13.935Z,100.00
2019-02-14T02:54:46.292Z,100.00
2019-02-14T02:57:18.730Z,100.00
2019-02-14T02:59:51.087Z,100.00
2019-02-14T03:02:23.460Z,100.00
2019-02-14T03:04:55.848Z,100.00
2019-02-14T03:07:28.690Z,100.00
2019-02-14T03:10:01.060Z,100.00
2019-02-14T03:12:33.149Z,100.00
2019-02-14T03:15:06.038Z,100.00
2019-02-14T03:17:38.254Z,100.00
2019-02-14T03:20:12.196Z,100.00
2019-02-14T03:22:44.284Z,100.00
2019-02-14T03:25:17.930Z,100.00
2019-02-14T03:27:50.026Z,100.00
2019-02-14T03:30:22.098Z,100.00
2019-02-14T03:32:54.226Z,100.00
2019-02-14T03:35:26.579Z,100.00
2019-02-14T03:37:58.935Z,100.00
2019-02-14T03:40:31.018Z,100.00
2019-02-14T03:43:03.581Z,100.00
2019-02-14T03:45:35.913Z,100.00
2019-02-14T03:48:08.106Z,100.00
2019-02-14T03:50:40.585Z,100.00
2019-02-14T03:53:12.955Z,100.00
2019-02-14T03:55:45.027Z,100.00
2019-02-14T03:58:17.514Z,100.00
2019-02-14T04:00:49.868Z,100.00
2019-02-14T04:03:22.026Z,100.00
2019-02-14T04:05:54.107Z,100.00
2019-02-14T04:08:26.580Z,100.00
2019-02-14T04:10:59.034Z,100.00
2019-02-14T04:13:31.777Z,100.00
2019-02-14T04:16:04.587Z,100.00
2019-02-14T04:18:37.217Z,100.00
2019-02-14T04:21:09.952Z,100.00
2019-02-14T04:23:42.767Z,100.00
2019-02-14T04:26:15.113Z,100.00
2019-02-14T04:28:47.577Z,100.00
2019-02-14T04:31:19.952Z,100.00
2019-02-14T04:33:53.075Z,100.00
2019-02-14T04:36:25.141Z,100.00
2019-02-14T04:38:57.232Z,100.00
2019-02-14T04:41:29.316Z,100.00
2019-02-14T04:44:01.785Z,100.00
2019-02-14T04:46:34.484Z,100.00
2019-02-14T04:49:06.932Z,100.00
2019-02-14T04:51:39.592Z,100.00
2019-02-14T04:54:12.013Z,100.00
2019-02-14T04:56:44.425Z,100.00
2019-02-14T04:59:16.906Z,100.00
2019-02-14T05:01:49.418Z,100.00
2019-02-14T05:04:22.088Z,100.00
2019-02-14T05:06:54.429Z,100.00
2019-02-14T05:09:26.999Z,100.00
2019-02-14T05:11:59.738Z,100.00
2019-02-14T05:14:32.112Z,100.00
2019-02-14T05:17:04.466Z,100.00
2019-02-14T05:19:36.551Z,100.00
2019-02-14T05:22:08.650Z,100.00
2019-02-14T05:24:41.212Z,100.00
2019-02-14T05:27:13.555Z,100.00
2019-02-14T05:29:45.669Z,100.00
2019-02-14T05:32:17.817Z,100.00
2019-02-14T05:34:50.540Z,100.00
2019-02-14T05:37:22.900Z,100.00
2019-02-14T05:39:55.561Z,100.00
2019-02-14T05:42:27.903Z,100.00
2019-02-14T05:45:00.460Z,100.00
2019-02-14T05:47:32.800Z,100.00
2019-02-14T05:50:05.726Z,100.00
2019-02-14T05:52:38.263Z,100.00
2019-02-14T05:55:11.509Z,100.00
2019-02-14T05:57:42.517Z,100.00
2019-02-14T06:00:15.636Z,100.00
2019-02-14T06:02:47.748Z,100.00
2019-02-14T06:05:20.041Z,100.00
2019-02-14T06:07:52.886Z,100.00
2019-02-14T06:10:25.353Z,100.00
2019-02-14T06:12:58.413Z,100.00
2019-02-14T06:15:30.932Z,100.00
2019-02-14T06:18:03.470Z,100.00
2019-02-14T06:20:35.845Z,100.00
2019-02-14T06:23:08.808Z,100.00
2019-02-14T06:25:41.026Z,100.00
2019-02-14T06:28:13.757Z,100.00
2019-02-14T06:30:46.516Z,100.00
2019-02-14T06:33:18.959Z,100.00
2019-02-14T06:35:51.323Z,100.00
2019-02-14T06:38:23.799Z,100.00
2019-02-14T06:40:56.568Z,100.00
2019-02-14T06:43:28.919Z,100.00
2019-02-14T06:46:01.330Z,100.00
2019-02-14T06:48:34.137Z,100.00
2019-02-14T06:51:06.569Z,100.00
2019-02-14T06:53:38.933Z,100.00
2019-02-14T06:56:11.114Z,100.00
2019-02-14T06:58:43.226Z,100.00
2019-02-14T07:01:15.744Z,100.00
2019-02-14T07:03:48.126Z,100.00
2019-02-14T07:06:20.501Z,100.00
2019-02-14T07:08:52.892Z,100.00
2019-02-14T07:11:25.272Z,100.00
2019-02-14T07:13:57.738Z,100.00
2019-02-14T07:16:30.547Z,100.00
2019-02-14T07:19:02.910Z,100.00
2019-02-14T07:21:35.045Z,100.00
2019-02-14T07:24:07.228Z,100.00
2019-02-14T07:26:39.623Z,100.00
2019-02-14T07:29:12.058Z,100.00
2019-02-14T07:31:44.555Z,100.00
2019-02-14T07:34:17.648Z,100.00
2019-02-14T07:36:49.734Z,100.00
2019-02-14T07:39:22.132Z,100.00
2019-02-14T07:41:54.875Z,100.00
2019-02-14T07:44:27.244Z,100.00
2019-02-14T07:46:59.624Z,100.00
2019-02-14T07:49:31.984Z,100.00
2019-02-14T07:52:04.359Z,100.00
2019-02-14T07:54:36.819Z,100.00
2019-02-14T07:57:09.168Z,100.00
2019-02-14T07:59:41.990Z,100.00
2019-02-14T08:02:14.342Z,100.00
2019-02-14T08:04:46.427Z,100.00
2019-02-14T08:07:18.504Z,100.00
2019-02-14T08:09:50.652Z,100.00
2019-02-14T08:12:23.008Z,100.00
2019-02-14T08:14:55.383Z,100.00
2019-02-14T08:17:27.734Z,100.00
2019-02-14T08:19:59.845Z,100.00
2019-02-14T08:22:31.903Z,100.00
2019-02-14T08:25:04.415Z,100.00
2019-02-14T08:27:36.772Z,100.00
2019-02-14T08:30:12.659Z,100.00
2019-02-14T08:32:44.726Z,100.00
2019-02-14T08:35:16.808Z,100.00
2019-02-14T08:37:48.859Z,100.00
2019-02-14T08:40:24.229Z,100.00
2019-02-14T08:42:56.300Z,100.00
2019-02-14T08:45:28.394Z,100.00
2019-02-14T08:48:00.444Z,100.00
2019-02-14T08:50:32.517Z,100.00
2019-02-14T08:53:04.572Z,100.00
2019-02-14T08:55:36.649Z,100.00
2019-02-14T08:58:09.053Z,100.00
2019-02-14T09:00:41.497Z,100.00
2019-02-14T09:03:13.877Z,100.00
2019-02-14T09:05:46.056Z,100.00
2019-02-14T09:08:18.391Z,100.00
2019-02-14T09:10:50.531Z,100.00
2019-02-14T09:13:22.933Z,100.00
2019-02-14T09:15:55.302Z,100.00
2019-02-14T09:18:27.353Z,100.00
2019-02-14T09:20:59.444Z,100.00
2019-02-14T09:23:31.970Z,100.00
2019-02-14T09:26:04.357Z,100.00
2019-02-14T09:28:36.539Z,100.00
2019-02-14T09:31:08.616Z,100.00
2019-02-14T09:33:40.711Z,100.00
2019-02-14T09:36:12.807Z,100.00
2019-02-14T09:38:45.056Z,100.00
2019-02-14T09:41:17.636Z,100.00
2019-02-14T09:43:49.977Z,100.00
2019-02-14T09:46:22.103Z,100.00
2019-02-14T09:48:54.191Z,100.00
2019-02-14T09:51:26.290Z,100.00
2019-02-14T09:53:58.465Z,100.00
2019-02-14T09:56:30.910Z,100.00
2019-02-14T09:59:03.275Z,100.00
2019-02-14T10:01:35.669Z,100.00
2019-02-14T10:04:08.046Z,99.81
2019-02-14T10:06:40.165Z,98.89
2019-02-14T10:09:12.262Z,97.92
2019-02-14T10:11:44.369Z,97.08
2019-02-14T10:14:16.398Z,96.10
2019-02-14T10:16:48.488Z,95.53
2019-02-14T10:19:20.545Z,93.98
2019-02-14T10:21:52.766Z,93.05
2019-02-14T10:24:25.099Z,93.27
2019-02-14T10:26:57.173Z,92.00
2019-02-14T10:29:29.571Z,91.54
2019-02-14T10:32:01.933Z,91.07
2019-02-14T10:34:34.002Z,90.09
2019-02-14T10:37:06.647Z,89.54
2019-02-14T10:39:38.703Z,88.25
2019-02-14T10:42:11.369Z,87.67
2019-02-14T10:44:43.450Z,87.03
2019-02-14T10:47:15.866Z,86.23
2019-02-14T10:49:48.198Z,85.53
2019-02-14T10:52:20.280Z,85.17
2019-02-14T10:54:52.752Z,84.04
2019-02-14T10:57:25.203Z,83.34
2019-02-14T10:59:58.403Z,82.79
2019-02-14T11:02:31.030Z,81.51
2019-02-14T11:05:03.357Z,81.87
2019-02-14T11:07:36.063Z,81.20
2019-02-14T11:10:09.576Z,79.87
2019-02-14T11:12:42.672Z,79.15
2019-02-14T11:15:16.589Z,78.58
2019-02-14T11:17:49.360Z,78.42
2019-02-14T11:20:21.501Z,77.74
2019-02-14T11:22:53.599Z,77.31
2019-02-14T11:25:29.937Z,76.20
2019-02-14T11:28:02.601Z,74.73
2019-02-14T11:30:35.378Z,74.34
2019-02-14T11:33:07.736Z,73.43
2019-02-14T11:35:39.795Z,72.79
2019-02-14T11:38:11.901Z,71.87
2019-02-14T11:40:44.060Z,72.37
2019-02-14T11:43:16.151Z,71.39
2019-02-14T11:45:48.220Z,72.85
2019-02-14T11:48:20.297Z,71.34
2019-02-14T11:50:52.364Z,72.59
2019-02-14T11:53:24.462Z,71.38
2019-02-14T11:55:57.139Z,70.09
2019-02-14T11:58:29.552Z,69.39
2019-02-14T12:01:01.882Z,70.96
2019-02-14T12:03:34.616Z,69.99
2019-02-14T12:06:06.958Z,68.00
2019-02-14T12:08:39.325Z,68.83
2019-02-14T12:11:12.365Z,68.16
2019-02-14T12:13:44.625Z,68.80
2019-02-14T12:16:16.981Z,67.75
2019-02-14T12:18:49.154Z,66.47
2019-02-14T12:21:21.528Z,65.55
2019-02-14T12:23:53.909Z,63.33
2019-02-14T12:26:26.246Z,63.10
2019-02-14T12:28:58.356Z,65.27
2019-02-14T12:31:30.428Z,64.02
2019-02-14T12:34:03.448Z,63.94
2019-02-14T12:36:36.120Z,62.30
2019-02-14T12:39:11.533Z,61.18
2019-02-14T12:41:43.917Z,60.59
2019-02-14T12:44:17.614Z,59.55
2019-02-14T12:46:50.651Z,61.46
2019-02-14T12:49:29.031Z,60.20
2019-02-14T12:52:10.685Z,63.61
2019-02-14T12:54:55.487Z,63.34
2019-02-14T12:57:28.309Z,63.26
2019-02-14T13:00:00.668Z,62.07
2019-02-14T13:02:33.029Z,60.90
2019-02-14T13:05:05.751Z,60.17
2019-02-14T13:07:38.268Z,61.72
2019-02-14T13:10:11.723Z,58.57
2019-02-14T13:12:44.464Z,61.43
2019-02-14T13:15:19.664Z,57.72
2019-02-14T13:17:52.333Z,59.25
2019-02-14T13:20:25.065Z,59.21
2019-02-14T13:23:09.135Z,58.56
2019-02-14T13:25:51.668Z,57.19
2019-02-14T13:28:27.043Z,57.33
2019-02-14T13:31:13.329Z,58.28
2019-02-14T13:33:46.446Z,55.93
2019-02-14T13:36:18.933Z,57.73
2019-02-14T13:38:51.624Z,57.88
2019-02-14T13:41:30.933Z,58.18
2019-02-14T13:43:58.732Z,57.28
2019-02-14T13:46:31.123Z,57.51
2019-02-14T13:49:03.895Z,57.85
2019-02-14T13:51:36.255Z,57.07
2019-02-14T13:54:08.610Z,56.38
2019-02-14T13:56:41.020Z,56.74
2019-02-14T13:59:13.524Z,56.73
2019-02-14T14:01:45.940Z,56.02
2019-02-14T14:04:18.402Z,57.25
2019-02-14T14:06:50.787Z,54.82
2019-02-14T14:09:23.142Z,55.22
2019-02-14T14:11:55.523Z,54.63
2019-02-14T14:14:28.258Z,57.71
2019-02-14T14:17:00.977Z,55.73
2019-02-14T14:19:33.358Z,57.36
2019-02-14T14:22:05.744Z,55.47
2019-02-14T14:24:38.135Z,54.54
2019-02-14T14:27:10.644Z,54.62
2019-02-14T14:29:43.000Z,56.02
2019-02-14T14:32:15.439Z,55.86
2019-02-14T14:34:47.844Z,55.72
2019-02-14T14:37:20.215Z,56.50
2019-02-14T14:39:52.575Z,56.20
2019-02-14T14:42:42.733Z,56.40
2019-02-14T14:45:19.085Z,56.61
2019-02-14T14:47:52.054Z,56.85
2019-02-14T14:50:24.421Z,55.57
2019-02-14T14:52:57.051Z,55.20
2019-02-14T14:55:29.437Z,53.96
2019-02-14T14:58:01.869Z,55.14
2019-02-14T15:00:34.289Z,53.90
2019-02-14T15:03:06.668Z,57.20
2019-02-14T15:05:39.011Z,56.38
2019-02-14T15:08:11.436Z,55.02
2019-02-14T15:10:43.786Z,56.46
2019-02-14T15:13:16.188Z,57.45
2019-02-14T15:15:48.544Z,56.49
2019-02-14T15:18:21.088Z,57.91
2019-02-14T15:20:53.461Z,56.83
2019-02-14T15:23:25.838Z,54.34
2019-02-14T15:25:58.210Z,54.81
2019-02-14T15:28:30.584Z,56.99
2019-02-14T15:31:03.115Z,57.64
2019-02-14T15:33:37.743Z,56.58
2019-02-14T15:36:10.160Z,56.28
2019-02-14T15:38:42.916Z,57.64
2019-02-14T15:41:15.375Z,54.77
2019-02-14T15:43:47.760Z,55.29
2019-02-14T15:46:20.149Z,57.64
2019-02-14T15:48:52.564Z,54.84
2019-02-14T15:51:24.994Z,58.19
2019-02-14T15:53:57.374Z,55.98
2019-02-14T15:56:31.501Z,57.50
2019-02-14T15:59:04.408Z,58.10
2019-02-14T16:01:36.767Z,57.43
2019-02-14T16:04:09.170Z,58.22
2019-02-14T16:06:41.890Z,59.24
2019-02-14T16:09:14.835Z,58.69
2019-02-14T16:11:48.639Z,59.49
2019-02-14T16:14:21.036Z,59.43
2019-02-14T16:16:53.415Z,60.00
2019-02-14T16:19:25.743Z,60.95
2019-02-14T16:21:57.887Z,60.96
2019-02-14T16:24:32.207Z,61.94
2019-02-14T16:27:04.847Z,62.55
2019-02-14T16:29:37.218Z,63.35
2019-02-14T16:32:09.645Z,63.20
2019-02-14T16:34:42.009Z,65.28
2019-02-14T16:37:14.360Z,65.65
2019-02-14T16:39:51.785Z,65.62
2019-02-14T16:42:21.310Z,68.13
2019-02-14T16:44:54.064Z,68.26
2019-02-14T16:47:26.746Z,68.66
2019-02-14T16:49:59.161Z,69.05
2019-02-14T16:52:31.521Z,68.96
2019-02-14T16:55:03.607Z,70.61
2019-02-14T16:57:36.076Z,70.95
2019-02-14T17:00:11.136Z,71.05
2019-02-14T17:02:43.777Z,71.33
2019-02-14T17:05:16.165Z,72.26
2019-02-14T17:07:48.518Z,71.43
2019-02-14T17:10:21.374Z,72.88
2019-02-14T17:12:53.808Z,73.37
2019-02-14T17:15:26.170Z,73.56
2019-02-14T17:17:58.274Z,73.74
2019-02-14T17:20:30.349Z,76.13
2019-02-14T17:23:02.797Z,75.94
2019-02-14T17:25:35.162Z,76.38
2019-02-14T17:28:07.553Z,76.69
2019-02-14T17:30:40.340Z,77.19
2019-02-14T17:33:13.463Z,77.38
2019-02-14T17:35:45.826Z,77.66
2019-02-14T17:38:18.278Z,77.97
2019-02-14T17:40:50.929Z,78.49
2019-02-14T17:43:23.568Z,78.76
2019-02-14T17:45:55.919Z,78.69
2019-02-14T17:48:30.844Z,79.07
2019-02-14T17:51:03.560Z,79.32
2019-02-14T17:53:35.636Z,79.85
2019-02-14T17:56:08.916Z,80.50
2019-02-14T17:58:42.977Z,80.16
2019-02-14T18:01:17.499Z,80.63
2019-02-14T18:03:50.231Z,80.58
2019-02-14T18:06:22.822Z,80.96
2019-02-14T18:08:55.304Z,81.32
2019-02-14T18:11:27.811Z,81.61
2019-02-14T18:14:03.363Z,81.65
2019-02-14T18:16:38.255Z,82.27
2019-02-14T18:19:11.864Z,82.82
2019-02-14T18:21:43.243Z,83.06
2019-02-14T18:24:15.683Z,83.19
2019-02-14T18:26:54.105Z,83.63
2019-02-14T18:29:27.699Z,83.98
2019-02-14T18:32:00.820Z,84.24
2019-02-14T18:34:33.297Z,85.07
2019-02-14T18:37:05.947Z,85.18
2019-02-14T18:39:38.622Z,85.56
2019-02-14T18:42:11.303Z,85.88
2019-02-14T18:44:44.160Z,86.16
2019-02-14T18:47:16.514Z,86.45
2019-02-14T18:49:48.669Z,86.60
2019-02-14T18:52:20.924Z,86.84
2019-02-14T18:54:53.351Z,87.24
2019-02-14T18:57:25.405Z,87.42
2019-02-14T18:59:57.902Z,87.54
2019-02-14T19:02:31.006Z,87.94
2019-02-14T19:05:03.118Z,88.50
2019-02-14T19:07:35.165Z,88.75
2019-02-14T19:10:08.140Z,89.11
2019-02-14T19:12:40.915Z,89.33
2019-02-14T19:15:13.791Z,89.60
2019-02-14T19:17:46.461Z,89.83
2019-02-14T19:20:19.099Z,90.10
2019-02-14T19:22:51.739Z,90.27
2019-02-14T19:25:24.643Z,90.68
2019-02-14T19:27:57.183Z,91.32
2019-02-14T19:30:29.536Z,91.70
2019-02-14T19:33:01.898Z,92.21
2019-02-14T19:35:34.288Z,92.42
2019-02-14T19:38:06.669Z,92.62
2019-02-14T19:40:39.719Z,92.81
2019-02-14T19:43:12.577Z,93.01
2019-02-14T19:45:44.882Z,93.19
2019-02-14T19:48:17.103Z,93.48
2019-02-14T19:50:49.842Z,93.78
2019-02-14T19:53:22.240Z,94.10
2019-02-14T19:55:54.450Z,94.29
2019-02-14T19:58:27.498Z,94.45
2019-02-14T20:00:59.868Z,94.55
2019-02-14T20:03:32.121Z,94.89
2019-02-14T20:06:05.018Z,95.12
2019-02-14T20:08:37.903Z,95.24
2019-02-14T20:11:11.549Z,95.38
2019-02-14T20:13:49.622Z,95.58
2019-02-14T20:16:19.366Z,95.97
2019-02-14T20:18:51.473Z,96.19
2019-02-14T20:21:23.659Z,96.38
2019-02-14T20:23:56.532Z,96.66
2019-02-14T20:26:29.064Z,96.79
2019-02-14T20:29:01.566Z,96.79
2019-02-14T20:31:34.871Z,97.10
2019-02-14T20:34:06.396Z,97.23
2019-02-14T20:36:39.462Z,97.31
2019-02-14T20:39:11.664Z,97.59
2019-02-14T20:41:46.720Z,97.64
2019-02-14T20:44:19.910Z,97.89
2019-02-14T20:46:52.875Z,98.08
2019-02-14T20:49:25.347Z,98.16
2019-02-14T20:51:58.080Z,98.39
2019-02-14T20:54:31.084Z,98.58
2019-02-14T20:57:04.128Z,98.68
2019-02-14T20:59:36.929Z,98.76
2019-02-14T21:02:09.136Z,98.91
2019-02-14T21:04:41.624Z,99.02
2019-02-14T21:07:14.443Z,99.14
2019-02-14T21:09:47.351Z,99.32
2019-02-14T21:12:19.843Z,99.48
2019-02-14T21:14:52.262Z,99.57
2019-02-14T21:17:24.655Z,99.60
2019-02-14T21:19:56.831Z,99.77
2019-02-14T21:22:29.196Z,100.00
2019-02-14T21:25:01.350Z,100.00
2019-02-14T21:27:35.221Z,100.00
2019-02-14T21:30:08.322Z,100.00
2019-02-14T21:32:40.446Z,100.00
2019-02-14T21:35:12.920Z,100.00
2019-02-14T21:37:45.005Z,100.00
2019-02-14T21:40:17.248Z,100.00
2019-02-14T21:42:49.617Z,100.00
2019-02-14T21:45:22.047Z,100.00
2019-02-14T21:47:54.568Z,100.00
2019-02-14T21:50:26.994Z,100.00
2019-02-14T21:53:01.499Z,100.00
2019-02-14T21:55:33.855Z,100.00
2019-02-14T21:58:06.548Z,100.00
2019-02-14T22:00:39.362Z,100.00
2019-02-14T22:03:12.086Z,100.00
2019-02-14T22:05:44.816Z,100.00
2019-02-14T22:08:17.283Z,100.00
2019-02-14T22:10:49.781Z,100.00
2019-02-14T22:13:22.206Z,100.00
2019-02-14T22:15:54.700Z,100.00
2019-02-14T22:18:27.116Z,100.00
2019-02-14T22:20:59.604Z,100.00
2019-02-14T22:23:32.166Z,100.00
2019-02-14T22:26:04.545Z,100.00
2019-02-14T22:28:36.751Z,100.00
2019-02-14T22:31:09.237Z,100.00
2019-02-14T22:33:41.772Z,100.00
2019-02-14T22:36:14.302Z,100.00
2019-02-14T22:38:47.188Z,100.00
2019-02-14T22:41:19.595Z,100.00
2019-02-14T22:43:52.222Z,100.00
2019-02-14T22:46:24.711Z,100.00
2019-02-14T22:48:57.110Z,100.00
2019-02-14T22:51:30.173Z,100.00
2019-02-14T22:54:02.389Z,100.00
2019-02-14T22:56:35.049Z,100.00
2019-02-14T22:59:07.464Z,100.00
2019-02-14T23:01:40.998Z,100.00
2019-02-14T23:04:13.532Z,100.00
2019-02-14T23:06:47.975Z,100.00
2019-02-14T23:09:20.536Z,100.00
2019-02-14T23:11:53.212Z,100.00
2019-02-14T23:14:25.968Z,100.00
2019-02-14T23:16:58.456Z,100.00
2019-02-14T23:19:31.268Z,100.00
2019-02-14T23:22:03.725Z,100.00
2019-02-14T23:24:36.079Z,100.00
2019-02-14T23:27:09.266Z,100.00
2019-02-14T23:29:40.281Z,100.00
2019-02-14T23:32:12.320Z,100.00
2019-02-14T23:34:44.857Z,100.00
2019-02-14T23:37:17.623Z,100.00
2019-02-14T23:39:50.016Z,100.00
2019-02-14T23:42:22.423Z,100.00
2019-02-14T23:44:55.058Z,100.00
2019-02-14T23:47:27.413Z,100.00
2019-02-14T23:49:59.494Z,100.00
2019-02-14T23:52:31.584Z,100.00
2019-02-14T23:55:04.063Z,100.00
2019-02-14T23:57:37.597Z,100.00
